Ituporanga, Brazil
Current Conditions -  °F | °C
As of 4:00 AM on Thursday 23 Oct 2014 (Local Time) from SBFL Reporting Station
Clear Clear  
Wind Chill: 64°   Ceiling: Unl
Heat Index: 64°   Visibility: 6mi
Dew Point: 59°   Wind: 3mph
Humidity: 83%   Direction: 310°NW
Pressure: 30.12"   Gusts: NA
Location:  27.41°S, 49.6°W
Report Text: SBFL 230600Z 31003KT CAVOK 18/15 Q1020
Loading
Personal Weather Stations






























Interactive Weather Map
Tropical Storm Tracking
New forecast layout! Learn more

10-Day Weather Forecast

Advertisements
Track Severe Weather on mobile